Time;durP1;ratioP1;P1;durP2;ratioP2;P2;SDS_P1;SDS_P2;PMS_P1;PMS_P2;Temp;Humidity;BMP_temperature;BMP_pressure;BME280_temperature;BME280_humidity;BME280_pressure;Samples;Min_cycle;Max_cycle;Signal;HPM_P1;HPM_P2
2023/03/05 00:00:17;;;;;;;9.90;3.60;;;;;;;3.82;89.05;102090.44;5262890;28;20031;-70
2023/03/05 00:02:49;;;;;;;12.73;3.70;;;;;;;3.80;88.79;102095.53;5261623;28;20507;-70
2023/03/05 00:05:20;;;;;;;13.03;3.47;;;;;;;3.78;89.35;102094.59;5262890;28;20272;-70
2023/03/05 00:07:52;;;;;;;14.43;3.93;;;;;;;3.79;89.45;102092.91;5262749;28;20088;-70
2023/03/05 00:10:23;;;;;;;11.30;3.87;;;;;;;3.76;89.61;102090.19;5262236;28;20120;-70
2023/03/05 00:12:54;;;;;;;8.73;3.50;;;;;;;3.75;89.72;102085.84;5263079;28;20036;-70
2023/03/05 00:15:26;;;;;;;14.33;3.70;;;;;;;3.75;90.28;102091.00;5261278;28;20136;-70
2023/03/05 00:17:58;;;;;;;16.50;4.37;;;;;;;3.77;90.23;102081.66;5262876;28;20111;-71
2023/03/05 00:20:29;;;;;;;16.83;5.07;;;;;;;3.80;90.39;102092.03;5262249;28;20036;-71
2023/03/05 00:23:00;;;;;;;18.97;5.17;;;;;;;3.75;90.44;102091.00;5262701;28;20064;-71
2023/03/05 00:25:34;;;;;;;11.70;3.63;;;;;;;3.73;90.46;102087.50;5262704;28;20021;-70
2023/03/05 00:28:07;;;;;;;17.52;4.65;;;;;;;3.76;90.57;102087.63;5262820;28;20029;-72
2023/03/05 00:30:38;;;;;;;12.48;3.40;;;;;;;3.70;90.62;102080.53;5262645;28;20473;-70
2023/03/05 00:33:11;;;;;;;12.63;3.73;;;;;;;3.75;90.72;102078.13;5262600;28;20037;-70
2023/03/05 00:35:45;;;;;;;18.23;3.80;;;;;;;3.73;90.90;102066.88;5262545;28;20376;-70
2023/03/05 00:38:16;;;;;;;12.23;3.90;;;;;;;3.75;90.89;102070.38;5262480;28;20029;-72
2023/03/05 00:40:50;;;;;;;12.57;3.40;;;;;;;3.72;90.96;102073.75;5262035;28;20464;-72
2023/03/05 00:43:21;;;;;;;13.07;3.35;;;;;;;3.68;90.87;102066.72;5262470;28;20029;-71
2023/03/05 00:45:53;;;;;;;17.97;4.53;;;;;;;3.67;91.07;102064.06;5261297;28;20033;-71
2023/03/05 00:48:24;;;;;;;12.53;3.40;;;;;;;3.65;90.80;102061.44;5262475;28;20028;-71
2023/03/05 00:50:55;;;;;;;17.20;4.80;;;;;;;3.60;91.44;102053.53;5262108;28;20487;-71
2023/03/05 00:53:27;;;;;;;16.83;3.90;;;;;;;3.61;91.45;102052.72;5262165;28;20376;-71
2023/03/05 00:55:58;;;;;;;15.77;3.20;;;;;;;3.61;91.46;102047.56;5262712;28;20036;-70
2023/03/05 00:58:30;;;;;;;12.80;3.83;;;;;;;3.58;91.81;102057.75;5267684;28;20052;-71
2023/03/05 01:01:02;;;;;;;15.70;4.10;;;;;;;3.59;91.81;102054.38;5274262;28;20029;-70
2023/03/05 01:03:34;;;;;;;16.17;4.07;;;;;;;3.56;91.79;102050.78;5273684;28;20037;-71
2023/03/05 01:06:08;;;;;;;11.50;3.22;;;;;;;3.53;92.16;102053.28;5265882;28;20059;-71
2023/03/05 01:08:40;;;;;;;15.18;3.05;;;;;;;3.52;92.05;102048.94;5265333;28;20040;-71
2023/03/05 01:11:11;;;;;;;10.00;3.30;;;;;;;3.55;92.21;102037.03;5266297;28;20037;-71
2023/03/05 01:13:42;;;;;;;11.83;3.57;;;;;;;3.49;92.79;102038.50;5266542;28;20349;-71
2023/03/05 01:16:14;;;;;;;18.60;4.13;;;;;;;3.51;92.74;102035.16;5266537;28;20134;-71
2023/03/05 01:18:45;;;;;;;14.33;4.00;;;;;;;3.47;92.91;102028.13;5266374;28;20120;-71
2023/03/05 01:21:16;;;;;;;10.93;3.53;;;;;;;3.50;93.20;102029.97;5266234;28;20102;-71
2023/03/05 01:23:48;;;;;;;12.07;3.60;;;;;;;3.53;93.25;102024.91;5265213;28;20116;-70
2023/03/05 01:26:19;;;;;;;15.97;5.07;;;;;;;3.50;93.26;102023.09;5266128;28;20044;-71
2023/03/05 01:28:51;;;;;;;16.97;4.00;;;;;;;3.52;93.25;102016.28;5266129;28;20380;-70
2023/03/05 01:31:22;;;;;;;13.00;4.17;;;;;;;3.51;93.48;102017.13;5266148;28;20036;-71
2023/03/05 01:33:55;;;;;;;8.93;3.20;;;;;;;3.50;94.07;102010.19;5264463;28;20056;-71
2023/03/05 01:36:26;;;;;;;12.27;4.53;;;;;;;3.45;94.41;102009.16;5266077;28;20083;-71
2023/03/05 01:38:58;;;;;;;16.57;3.93;;;;;;;3.38;94.95;102010.66;5264420;28;20033;-72
2023/03/05 01:41:29;;;;;;;20.17;4.70;;;;;;;3.35;94.91;102005.38;5265827;28;20033;-71
2023/03/05 01:44:01;;;;;;;16.23;3.93;;;;;;;3.29;94.95;101998.28;5265793;28;20040;-71
2023/03/05 01:46:35;;;;;;;12.10;3.93;;;;;;;3.34;95.05;101995.00;5265721;28;20059;-71
2023/03/05 01:49:19;;;;;;;12.20;3.72;;;;;;;3.33;95.13;101993.25;5265600;28;20033;-71
2023/03/05 01:51:57;;;;;;;13.77;4.40;;;;;;;3.29;95.23;101993.13;5265749;28;20086;-71
2023/03/05 01:54:44;;;;;;;18.65;4.57;;;;;;;3.22;95.66;101986.00;5266661;28;20036;-71
2023/03/05 01:57:38;;;;;;;15.57;4.90;;;;;;;3.20;96.37;101979.91;5265626;28;20039;-72
2023/03/05 02:00:16;;;;;;;15.77;3.30;;;;;;;3.16;96.73;101974.59;5265998;28;20456;-72
2023/03/05 02:02:50;;;;;;;15.48;3.40;;;;;;;3.20;96.35;101972.16;5265494;28;20056;-72
2023/03/05 02:05:29;;;;;;;15.93;4.47;;;;;;;3.14;96.52;101968.50;5265308;28;20453;-72
2023/03/05 02:08:03;;;;;;;15.73;3.75;;;;;;;3.21;96.67;101957.59;5265444;28;20419;-71
2023/03/05 02:10:43;;;;;;;13.60;4.05;;;;;;;3.25;96.71;101959.47;5263910;28;20040;-71
2023/03/05 02:13:26;;;;;;;11.88;2.95;;;;;;;3.23;96.84;101959.41;5265271;28;20041;-71
2023/03/05 02:16:00;;;;;;;9.20;2.72;;;;;;;3.26;96.34;101951.78;5265195;28;20136;-71
2023/03/05 02:18:32;;;;;;;9.48;3.17;;;;;;;3.18;96.52;101945.47;5265183;28;20036;-71
2023/03/05 02:21:05;;;;;;;17.23;4.30;;;;;;;3.17;96.61;101948.91;5263777;28;20033;-71
2023/03/05 02:23:38;;;;;;;12.75;4.35;;;;;;;3.16;96.72;101944.56;5264853;28;20369;-71
2023/03/05 02:26:09;;;;;;;;;;;;;;;3.23;96.42;101945.66;5265357;28;20059;-71
2023/03/05 02:28:55;;;;;;;8.85;2.92;;;;;;;3.24;96.74;101939.69;5264855;28;20352;-72
2023/03/05 02:31:27;;;;;;;12.40;4.03;;;;;;;3.19;96.74;101936.03;5265286;28;20028;-71
2023/03/05 02:33:58;;;;;;;14.27;3.40;;;;;;;3.15;96.66;101935.06;5264851;28;20055;-72
2023/03/05 02:36:30;;;;;;;14.13;4.10;;;;;;;3.15;96.79;101932.47;5264796;28;20040;-71
2023/03/05 02:39:02;;;;;;;9.83;3.20;;;;;;;3.09;96.95;101938.31;5264410;28;20086;-71
2023/03/05 02:41:33;;;;;;;12.98;3.25;;;;;;;3.07;97.22;101932.19;5264123;28;20461;-71
2023/03/05 02:44:05;;;;;;;13.93;3.60;;;;;;;3.09;98.00;101924.53;5263527;28;20032;-71
2023/03/05 02:46:36;;;;;;;11.07;3.40;;;;;;;3.02;98.20;101922.56;5264581;28;20025;-71
2023/03/05 02:49:08;;;;;;;10.27;3.13;;;;;;;3.01;98.50;101920.78;5263343;28;20041;-71
2023/03/05 02:51:39;;;;;;;13.73;3.90;;;;;;;3.00;98.67;101917.34;5264497;28;20040;-71
2023/03/05 02:54:10;;;;;;;10.30;3.50;;;;;;;2.98;99.03;101905.22;5264066;28;20044;-71
2023/03/05 02:56:42;;;;;;;10.80;2.87;;;;;;;2.98;98.75;101905.22;5264249;28;20037;-71
2023/03/05 02:59:13;;;;;;;16.93;3.67;;;;;;;2.96;99.55;101912.91;5264169;28;20075;-71
2023/03/05 03:01:45;;;;;;;10.23;3.70;;;;;;;2.96;99.25;101902.59;5264147;28;20029;-72
2023/03/05 03:04:16;;;;;;;10.77;3.60;;;;;;;2.95;99.43;101905.13;5264107;28;20465;-71
2023/03/05 03:06:47;;;;;;;10.43;3.63;;;;;;;2.95;99.31;101902.53;5263773;28;20032;-71
2023/03/05 03:09:19;;;;;;;12.83;3.50;;;;;;;2.98;99.25;101895.81;5263364;28;20078;-71
2023/03/05 03:11:50;;;;;;;16.67;4.13;;;;;;;3.06;99.11;101889.25;5264232;28;20037;-71
2023/03/05 03:14:22;;;;;;;13.33;3.70;;;;;;;3.06;99.16;101885.81;5263681;28;20053;-71
2023/03/05 03:16:53;;;;;;;16.73;2.97;;;;;;;3.01;99.46;101887.31;5264065;28;20090;-71
2023/03/05 03:19:24;;;;;;;14.93;3.90;;;;;;;2.98;99.79;101887.19;5264001;28;20033;-71
2023/03/05 03:21:56;;;;;;;13.27;3.37;;;;;;;2.99;99.45;101883.81;5263310;28;20468;-70
2023/03/05 03:24:29;;;;;;;13.10;3.67;;;;;;;2.93;99.93;101874.19;5263805;28;20099;-71
2023/03/05 03:27:01;;;;;;;10.35;4.32;;;;;;;2.92;100.00;101880.16;5263634;28;20059;-71
2023/03/05 03:29:32;;;;;;;16.63;4.80;;;;;;;2.94;100.00;101875.06;5262628;28;20032;-70
2023/03/05 03:32:04;;;;;;;14.07;3.80;;;;;;;2.87;99.74;101863.66;5263534;28;20033;-71
2023/03/05 03:34:36;;;;;;;14.30;4.27;;;;;;;2.79;99.54;101860.78;5263541;28;20449;-70
2023/03/05 03:37:07;;;;;;;12.83;4.87;;;;;;;2.73;100.00;101856.28;5263234;28;20033;-70
2023/03/05 03:39:39;;;;;;;12.63;3.50;;;;;;;2.70;100.00;101856.16;5262980;28;20036;-70
2023/03/05 03:42:10;;;;;;;13.47;4.33;;;;;;;2.67;100.00;101848.38;5263113;28;20102;-70
2023/03/05 03:44:41;;;;;;;12.87;4.10;;;;;;;2.71;100.00;101846.78;5263915;28;20033;-69
2023/03/05 03:47:13;;;;;;;23.93;5.97;;;;;;;2.70;100.00;101845.88;5261942;28;20044;-71
2023/03/05 03:49:44;;;;;;;10.90;4.20;;;;;;;2.65;100.00;101846.53;5263262;28;20354;-71
2023/03/05 03:52:16;;;;;;;23.00;4.63;;;;;;;2.64;100.00;101835.38;5263491;28;20108;-70
2023/03/05 03:54:51;;;;;;;15.17;5.30;;;;;;;2.63;100.00;101843.03;5268113;28;20112;-71
2023/03/05 03:57:22;;;;;;;11.40;3.50;;;;;;;2.65;100.00;101847.41;5272102;28;20029;-71
2023/03/05 03:59:53;;;;;;;20.17;4.50;;;;;;;2.60;100.00;101843.78;5269564;28;20039;-71
2023/03/05 04:02:25;;;;;;;14.60;5.17;;;;;;;2.61;100.00;101839.50;5266142;28;20033;-71
2023/03/05 04:04:57;;;;;;;14.90;4.50;;;;;;;2.60;100.00;101835.19;5263460;28;20036;-70
2023/03/05 04:07:28;;;;;;;15.50;5.13;;;;;;;2.59;100.00;101841.16;5262916;28;20083;-71
2023/03/05 04:09:59;;;;;;;15.60;5.30;;;;;;;2.60;100.00;101833.50;5262686;28;20036;-71
2023/03/05 04:12:31;;;;;;;17.17;5.80;;;;;;;2.53;100.00;101837.53;5260197;28;20101;-70
2023/03/05 04:15:03;;;;;;;13.50;4.03;;;;;;;2.56;100.00;101829.06;5262630;28;20037;-71
2023/03/05 04:17:34;;;;;;;12.23;4.60;;;;;;;2.57;100.00;101828.22;5261946;28;20094;-71
2023/03/05 04:20:09;;;;;;;17.00;5.00;;;;;;;2.55;100.00;101825.59;5261509;28;20295;-71
2023/03/05 04:22:40;;;;;;;15.00;5.13;;;;;;;2.53;100.00;101813.50;5262809;28;20094;-71
2023/03/05 04:25:11;;;;;;;22.90;5.40;;;;;;;2.57;100.00;101814.50;5262705;28;20032;-71
2023/03/05 04:27:43;;;;;;;19.33;6.50;;;;;;;2.50;100.00;101811.69;5262869;28;20028;-71
2023/03/05 04:30:14;;;;;;;19.17;6.23;;;;;;;2.55;100.00;101804.13;5262828;28;20033;-72
2023/03/05 04:32:46;;;;;;;13.23;5.27;;;;;;;2.50;100.00;101806.53;5261466;28;20037;-72
2023/03/05 04:35:17;;;;;;;18.00;5.23;;;;;;;2.49;100.00;101809.06;5262453;28;20040;-72
2023/03/05 04:37:49;;;;;;;15.57;4.83;;;;;;;2.48;100.00;101803.03;5262790;28;20052;-72
2023/03/05 04:40:20;;;;;;;18.30;5.20;;;;;;;2.49;100.00;101804.78;5260913;28;20033;-71
2023/03/05 04:42:52;;;;;;;16.30;4.80;;;;;;;2.50;100.00;101800.53;5262804;28;20537;-71
2023/03/05 04:45:23;;;;;;;13.77;5.57;;;;;;;2.57;100.00;101797.34;5247646;28;20044;-70
2023/03/05 04:47:55;;;;;;;17.40;5.43;;;;;;;2.54;100.00;101800.69;5241652;28;20048;-70
2023/03/05 04:50:26;;;;;;;13.90;4.70;;;;;;;2.55;100.00;101796.41;5241262;28;20029;-71
2023/03/05 04:52:59;;;;;;;10.63;4.97;;;;;;;2.55;100.00;101799.00;5241798;28;20121;-71
2023/03/05 04:55:30;;;;;;;15.10;5.88;;;;;;;2.56;100.00;101793.03;5241749;28;20424;-71
2023/03/05 04:58:02;;;;;;;16.50;6.50;;;;;;;2.55;100.00;101794.72;5241696;28;20117;-71
2023/03/05 05:00:33;;;;;;;16.57;5.70;;;;;;;2.54;100.00;101792.97;5241387;28;20522;-71
2023/03/05 05:03:05;;;;;;;14.80;6.37;;;;;;;2.53;100.00;101786.06;5241346;28;20029;-71
2023/03/05 05:05:36;;;;;;;16.93;5.57;;;;;;;2.57;100.00;101786.19;5241472;28;20306;-71
2023/03/05 05:08:09;;;;;;;15.67;6.43;;;;;;;2.53;100.00;101783.50;5239353;28;20033;-71
2023/03/05 05:10:40;;;;;;;13.02;6.00;;;;;;;2.49;100.00;101779.03;5240693;28;20037;-71
2023/03/05 05:13:12;;;;;;;14.93;5.83;;;;;;;2.50;100.00;101775.66;5241434;28;20171;-71
2023/03/05 05:15:43;;;;;;;12.93;5.63;;;;;;;2.53;100.00;101775.78;5241406;28;20517;-71
2023/03/05 05:18:14;;;;;;;12.17;5.37;;;;;;;2.51;100.00;101777.41;5241413;28;20040;-71
2023/03/05 05:20:46;;;;;;;19.17;6.03;;;;;;;2.48;100.00;101769.59;5241602;28;20029;-72
2023/03/05 05:23:18;;;;;;;15.50;6.53;;;;;;;2.48;100.00;101772.16;5241436;28;20055;-72
2023/03/05 05:26:00;;;;;;;13.40;7.10;;;;;;;2.50;100.00;101775.66;5240545;28;20034;-72
2023/03/05 05:28:34;;;;;;;16.88;5.93;;;;;;;2.47;100.00;101775.53;5241514;28;20373;-73
2023/03/05 05:31:07;;;;;;;12.45;6.65;;;;;;;2.52;100.00;101765.41;5241142;28;20030;-71
2023/03/05 05:33:39;;;;;;;19.38;6.30;;;;;;;2.50;100.00;101765.38;5241501;28;20033;-71
2023/03/05 05:36:13;;;;;;;14.32;6.47;;;;;;;2.56;100.00;101762.16;5240151;28;20168;-70
2023/03/05 05:38:45;;;;;;;17.73;7.13;;;;;;;2.49;100.00;101762.72;5241249;28;20041;-69
2023/03/05 05:41:17;;;;;;;13.07;6.60;;;;;;;2.51;100.00;101766.22;5241151;28;20037;-70
2023/03/05 05:43:48;;;;;;;19.83;7.20;;;;;;;2.47;100.00;101765.25;5241675;28;20110;-70
2023/03/05 05:46:21;;;;;;;15.63;7.33;;;;;;;2.46;100.00;101757.47;5243144;28;20072;-70
2023/03/05 05:48:53;;;;;;;16.25;7.20;;;;;;;2.41;100.00;101767.59;5244893;28;20032;-71
2023/03/05 05:51:24;;;;;;;13.63;6.30;;;;;;;2.36;100.00;101762.28;5244896;28;20041;-71
2023/03/05 05:53:56;;;;;;;13.73;6.43;;;;;;;2.35;100.00;101751.94;5244911;28;20136;-71
2023/03/05 05:56:27;;;;;;;18.63;7.60;;;;;;;2.34;100.00;101756.22;5244940;28;20084;-71
2023/03/05 05:58:59;;;;;;;18.90;7.03;;;;;;;2.34;100.00;101742.47;5244680;28;20033;-71
2023/03/05 06:01:32;;;;;;;17.97;8.80;;;;;;;2.34;100.00;101745.06;5244696;28;20490;-71
2023/03/05 06:04:03;;;;;;;14.68;7.30;;;;;;;2.36;100.00;101746.84;5244607;28;20424;-71
2023/03/05 06:06:35;;;;;;;17.60;7.40;;;;;;;2.37;100.00;101740.88;5244518;28;20026;-71
2023/03/05 06:09:06;;;;;;;14.40;7.23;;;;;;;2.33;100.00;101739.00;5244103;28;20045;-71
2023/03/05 06:11:38;;;;;;;17.43;7.57;;;;;;;2.36;100.00;101733.09;5244221;28;20029;-71
2023/03/05 06:14:11;;;;;;;15.40;7.03;;;;;;;2.38;100.00;101734.03;5242667;28;20044;-71
2023/03/05 06:16:42;;;;;;;12.18;7.28;;;;;;;2.42;100.00;101723.03;5244402;28;20135;-71
2023/03/05 06:19:14;;;;;;;11.60;6.83;;;;;;;2.43;100.00;101726.47;5243970;28;20057;-71
2023/03/05 06:21:46;;;;;;;14.43;8.50;;;;;;;2.41;100.00;101721.28;5244136;28;20040;-72
2023/03/05 06:24:18;;;;;;;12.17;7.07;;;;;;;2.40;100.00;101722.13;5243917;28;20037;-71
2023/03/05 06:26:49;;;;;;;18.00;6.87;;;;;;;2.44;100.00;101729.09;5244217;28;20546;-72
2023/03/05 06:29:21;;;;;;;13.53;6.93;;;;;;;2.40;100.00;101727.25;5242982;28;20272;-71
2023/03/05 06:31:52;;;;;;;12.83;6.83;;;;;;;2.44;100.00;101725.66;5243831;28;20029;-71
2023/03/05 06:34:23;;;;;;;14.93;7.43;;;;;;;2.42;100.00;101722.19;5244174;28;20033;-71
2023/03/05 06:36:55;;;;;;;13.67;6.70;;;;;;;2.46;100.00;101727.47;5251670;28;20112;-71
2023/03/05 06:39:26;;;;;;;14.47;7.87;;;;;;;2.44;100.00;101726.53;5264474;28;20040;-71
2023/03/05 06:41:58;;;;;;;13.30;7.27;;;;;;;2.45;100.00;101727.44;5264292;28;20033;-72
2023/03/05 06:44:29;;;;;;;16.83;8.07;;;;;;;2.50;100.00;101724.19;5264561;28;20029;-72
2023/03/05 06:47:00;;;;;;;18.53;7.43;;;;;;;2.54;100.00;101731.19;5264673;28;20109;-71
2023/03/05 06:49:32;;;;;;;17.43;8.53;;;;;;;2.53;100.00;101732.00;5265733;28;20044;-71
2023/03/05 06:52:04;;;;;;;15.40;6.60;;;;;;;2.53;100.00;101726.00;5270464;28;20029;-71
2023/03/05 06:54:36;;;;;;;16.92;7.90;;;;;;;2.55;100.00;101732.94;5270646;28;20496;-71
2023/03/05 06:57:10;;;;;;;20.60;7.57;;;;;;;2.55;100.00;101727.78;5267851;28;20072;-71
2023/03/05 06:59:43;;;;;;;15.23;6.80;;;;;;;2.59;100.00;101730.47;5264250;28;20033;-72
2023/03/05 07:02:15;;;;;;;12.13;6.43;;;;;;;2.64;100.00;101729.81;5263376;28;20500;-73
2023/03/05 07:04:49;;;;;;;12.13;6.20;;;;;;;2.70;100.00;101736.88;5263430;28;20033;-73
2023/03/05 07:07:24;;;;;;;11.02;4.57;;;;;;;2.70;100.00;101727.44;5263076;28;20291;-72
2023/03/05 07:09:58;;;;;;;11.80;5.20;;;;;;;2.71;100.00;101728.34;5262615;28;20064;-72
2023/03/05 07:12:30;;;;;;;10.60;4.82;;;;;;;2.66;100.00;101730.75;5262790;28;20029;-72
2023/03/05 07:15:04;;;;;;;10.90;5.30;;;;;;;2.72;100.00;101733.53;5263700;28;20159;-72
2023/03/05 07:17:42;;;;;;;11.38;5.88;;;;;;;2.80;100.00;101726.09;5262957;28;20067;-71
2023/03/05 07:20:14;;;;;;;10.90;5.75;;;;;;;2.80;100.00;101720.94;5262539;28;20112;-72
2023/03/05 07:22:49;;;;;;;11.73;6.00;;;;;;;2.90;100.00;101719.53;5262321;28;20043;-72
2023/03/05 07:25:43;;;;;;;10.70;5.35;;;;;;;2.89;100.00;101723.81;5263436;28;20025;-72
2023/03/05 07:28:15;;;;;;;9.68;5.28;;;;;;;2.99;100.00;101719.81;5263704;28;20032;-72
2023/03/05 07:31:25;;;;;;;11.93;5.83;;;;;;;3.08;100.00;101712.41;5262556;28;20037;-72
2023/03/05 07:34:05;;;;;;;9.45;5.80;;;;;;;3.12;100.00;101709.94;5259953;28;20045;-73
2023/03/05 07:36:37;;;;;;;7.80;5.00;;;;;;;3.20;100.00;101717.06;5261112;28;20037;-71
2023/03/05 07:39:12;;;;;;;7.97;4.20;;;;;;;3.23;100.00;101714.59;5235452;28;20413;-71
2023/03/05 07:41:51;;;;;;;9.32;4.53;;;;;;;3.15;100.00;101712.63;5258761;28;20032;-72
2023/03/05 07:44:23;;;;;;;9.85;4.50;;;;;;;3.23;100.00;101712.03;5261318;28;20017;-71
2023/03/05 07:46:54;;;;;;;13.17;5.67;;;;;;;3.26;100.00;101713.84;5260316;28;20078;-69
2023/03/05 07:49:26;;;;;;;9.33;4.20;;;;;;;3.29;100.00;101719.09;5260263;28;20025;-71
2023/03/05 07:51:58;;;;;;;9.27;4.33;;;;;;;3.32;100.00;101718.28;5260962;28;20480;-73
2023/03/05 07:57:52;;;;;;;6.82;3.72;;;;;;;3.39;100.00;101712.53;5251879;28;20041;-70
2023/03/05 08:00:24;;;;;;;10.98;3.65;;;;;;;3.35;100.00;101709.00;5261769;28;20064;-72
2023/03/05 08:02:55;;;;;;;6.60;3.97;;;;;;;3.47;100.00;101709.34;5259356;28;20041;-71
2023/03/05 08:05:30;;;;;;;5.03;3.43;;;;;;;3.57;100.00;101701.91;5261414;28;20029;-71
2023/03/05 08:08:02;;;;;;;9.95;3.38;;;;;;;3.53;100.00;101708.69;5260261;28;20384;-72
2023/03/05 08:10:37;;;;;;;8.70;3.35;;;;;;;3.61;100.00;101699.47;5260870;28;20029;-72
2023/03/05 08:13:22;;;;;;;8.98;3.63;;;;;;;3.67;100.00;101700.47;5259740;28;20041;-70
2023/03/05 08:16:05;;;;;;;19.50;4.30;;;;;;;3.68;100.00;101697.09;5261874;28;20558;-71
2023/03/05 08:18:39;;;;;;;8.88;3.70;;;;;;;3.74;100.00;101702.44;5257873;28;20029;-71
2023/03/05 08:21:34;;;;;;;6.60;3.80;;;;;;;3.77;100.00;101692.22;5261990;28;20033;-74
2023/03/05 08:24:15;;;;;;;9.75;3.13;;;;;;;3.79;100.00;101696.56;5247653;28;20036;-72
2023/03/05 08:26:51;;;;;;;8.15;3.60;;;;;;;3.74;100.00;101697.28;5240919;28;20381;-71
2023/03/05 08:33:18;;;;;;;6.00;3.13;;;;;;;3.78;100.00;101693.94;5155122;29;20075;-72
2023/03/05 08:35:50;;;;;;;6.78;3.40;;;;;;;3.81;100.00;101686.28;5141216;29;20047;-72
2023/03/05 08:38:21;;;;;;;7.70;3.77;;;;;;;3.91;100.00;101685.75;5227394;28;20053;-71
2023/03/05 08:40:53;;;;;;;5.47;3.17;;;;;;;3.96;100.00;101673.84;5222619;28;20540;-70
2023/03/05 08:43:24;;;;;;;8.67;3.27;;;;;;;4.04;100.00;101675.78;5239642;28;20037;-72
2023/03/05 08:45:58;;;;;;;7.63;2.93;;;;;;;4.23;99.99;101672.00;5241464;28;20030;-72
2023/03/05 08:48:30;;;;;;;5.03;2.75;;;;;;;4.29;98.44;101667.00;5238618;28;20029;-72
2023/03/05 08:51:13;;;;;;;8.65;3.55;;;;;;;4.50;98.18;101669.28;5249897;28;20088;-72
2023/03/05 08:53:45;;;;;;;11.02;3.72;;;;;;;4.52;96.88;101675.34;5259840;28;20029;-72
2023/03/05 08:56:27;;;;;;;;;;;;;;;4.52;96.42;101670.19;5261145;28;20530;-71
2023/03/05 08:58:58;;;;;;;8.07;2.90;;;;;;;4.42;97.01;101663.06;5262099;28;19915;-70
2023/03/05 09:01:30;;;;;;;6.20;3.10;;;;;;;4.65;96.85;101654.19;5261255;28;20025;-70
2023/03/05 09:04:02;;;;;;;10.68;2.92;;;;;;;4.83;95.12;101656.38;5256985;28;20427;-70
2023/03/05 09:06:38;;;;;;;9.90;2.88;;;;;;;4.78;93.93;101659.66;5261920;28;20353;-71
2023/03/05 09:09:09;;;;;;;3.75;2.03;;;;;;;4.59;93.62;101658.31;5261731;28;20029;-70
2023/03/05 09:11:40;;;;;;;4.73;2.60;;;;;;;4.59;94.61;101648.88;5260890;28;20032;-71
2023/03/05 09:14:12;;;;;;;4.37;2.70;;;;;;;4.54;94.59;101653.03;5261895;28;20540;-70
2023/03/05 09:16:43;;;;;;;3.93;1.93;;;;;;;4.53;94.49;101652.16;5261065;28;20049;-69
2023/03/05 09:19:14;;;;;;;4.97;2.73;;;;;;;4.58;94.41;101649.69;5262868;28;20449;-70
2023/03/05 09:21:46;;;;;;;5.70;2.90;;;;;;;4.55;95.15;101641.88;5265936;28;20071;-71
2023/03/05 09:24:18;;;;;;;7.13;3.10;;;;;;;4.82;93.98;101643.41;5264131;28;20056;-70
2023/03/05 09:26:49;;;;;;;6.23;2.37;;;;;;;4.90;92.37;101647.91;5265184;28;20083;-70
2023/03/05 09:29:20;;;;;;;4.77;2.13;;;;;;;5.08;91.76;101650.06;5264266;28;20061;-72
2023/03/05 09:31:53;;;;;;;5.50;2.00;;;;;;;5.16;90.48;101629.56;5262014;28;20041;-71
2023/03/05 09:34:25;;;;;;;;;;;;;;;5.21;89.06;101638.31;5264970;28;20029;-71
2023/03/05 09:36:56;;;;;;;3.47;2.08;;;;;;;5.23;88.02;101625.41;5263740;28;20003;-70
2023/03/05 09:39:27;;;;;;;4.47;2.60;;;;;;;5.62;88.93;101629.75;5263582;28;20037;-70
2023/03/05 09:42:14;;;;;;;3.57;1.63;;;;;;;6.03;86.67;101627.13;5279929;28;20060;-70
2023/03/05 09:45:09;;;;;;;4.72;1.75;;;;;;;6.66;84.79;101623.09;5265424;28;20041;-70
2023/03/05 09:47:56;;;;;;;3.92;2.55;;;;;;;6.72;80.30;101622.34;5263879;28;20032;-71
2023/03/05 09:50:37;;;;;;;2.75;1.80;;;;;;;6.29;80.08;101629.34;5263650;28;20411;-70
2023/03/05 09:53:54;;;;;;;5.50;1.95;;;;;;;6.22;81.07;101624.91;5266365;28;20445;-71
2023/03/05 09:56:30;;;;;;;5.80;2.30;;;;;;;6.20;80.94;101620.56;5244871;28;20536;-70
2023/03/05 09:59:13;;;;;;;6.05;1.90;;;;;;;6.16;80.69;101623.94;5265377;28;20041;-70
2023/03/05 10:01:47;;;;;;;6.63;2.22;;;;;;;6.09;79.99;101611.72;5264125;28;20037;-70
2023/03/05 10:04:42;;;;;;;4.15;2.00;;;;;;;5.92;81.19;101621.72;5264631;28;20095;-71
2023/03/05 10:07:21;;;;;;;5.07;1.90;;;;;;;5.74;80.38;101618.75;5264040;28;20035;-71
2023/03/05 10:10:01;;;;;;;4.32;1.90;;;;;;;5.84;82.27;101611.22;5263042;28;20056;-71
2023/03/05 10:12:44;;;;;;;5.18;1.77;;;;;;;6.02;81.95;101607.25;5264325;28;20460;-71
2023/03/05 10:15:15;;;;;;;;;;;;;;;6.23;81.30;101613.69;5264693;28;20048;-71
2023/03/05 10:17:57;;;;;;;4.32;1.77;;;;;;;5.76;80.77;101604.13;5262748;28;20264;-71
2023/03/05 10:20:36;;;;;;;7.03;3.58;;;;;;;5.72;83.49;101594.59;5263427;28;20126;-70
2023/03/05 10:23:08;;;;;;;6.47;1.90;;;;;;;5.98;84.67;101595.97;5264011;28;20066;-71
2023/03/05 10:25:51;;;;;;;3.03;2.30;;;;;;;6.16;83.09;101597.19;5263137;28;20107;-70
2023/03/05 10:28:44;;;;;;;4.80;2.00;;;;;;;6.21;80.94;101585.19;5263937;28;20056;-70
2023/03/05 10:31:29;;;;;;;4.78;1.70;;;;;;;6.22;81.05;101583.50;5262316;28;20029;-71
2023/03/05 10:34:09;;;;;;;5.75;1.95;;;;;;;6.09;80.52;101585.84;5264310;28;20384;-70
2023/03/05 10:37:06;;;;;;;2.78;1.60;;;;;;;5.64;80.54;101587.53;5263337;28;20071;-71
2023/03/05 10:39:55;;;;;;;6.22;1.90;;;;;;;5.29;83.04;101584.19;5262336;28;20437;-70
2023/03/05 10:42:39;;;;;;;3.78;2.17;;;;;;;5.10;86.85;101580.31;5263967;28;20100;-71
2023/03/05 10:45:15;;;;;;;4.88;2.42;;;;;;;5.02;89.03;101584.44;5264342;28;20033;-71
2023/03/05 10:47:49;;;;;;;6.20;3.03;;;;;;;4.59;92.03;101597.22;5263528;28;20035;-71
2023/03/05 10:50:25;;;;;;;8.98;3.20;;;;;;;3.99;96.59;101595.66;5264473;28;20033;-71
2023/03/05 10:53:12;;;;;;;5.03;2.20;;;;;;;3.59;100.00;101597.13;5263467;28;20033;-70
2023/03/05 10:55:44;;;;;;;4.13;2.00;;;;;;;3.46;100.00;101585.56;5264066;28;20029;-71
2023/03/05 10:58:16;;;;;;;5.80;2.80;;;;;;;3.51;100.00;101575.41;5263389;28;20108;-71
2023/03/05 11:01:17;;;;;;;3.42;1.98;;;;;;;3.77;100.00;101576.16;5264215;28;20098;-71
2023/03/05 11:03:55;;;;;;;4.25;2.42;;;;;;;4.18;100.00;101576.38;5263311;28;20437;-71
2023/03/05 11:06:38;;;;;;;3.42;1.98;;;;;;;4.82;100.00;101558.16;5263427;28;20025;-71
2023/03/05 11:09:20;;;;;;;3.58;1.60;;;;;;;5.21;95.30;101555.59;5263627;28;20060;-70
2023/03/05 11:12:20;;;;;;;2.67;1.58;;;;;;;5.90;92.78;101540.59;5263584;28;20449;-71
2023/03/05 11:15:13;;;;;;;2.28;1.30;;;;;;;6.17;88.62;101545.44;5263804;28;20059;-70
2023/03/05 11:18:16;;;;;;;3.45;1.55;;;;;;;6.69;88.80;101545.41;5263223;28;20175;-71
2023/03/05 11:20:48;;;;;;;4.40;1.67;;;;;;;7.17;89.10;101535.72;5262333;28;20036;-70
2023/03/05 11:23:25;;;;;;;6.57;1.92;;;;;;;7.24;82.22;101537.53;5262975;28;20263;-70
2023/03/05 11:26:00;;;;;;;4.03;1.30;;;;;;;7.21;79.96;101532.34;5262134;28;20029;-71
2023/03/05 11:28:35;;;;;;;1.90;1.20;;;;;;;7.21;79.16;101534.94;5257407;28;20455;-69
2023/03/05 11:31:23;;;;;;;2.10;1.20;;;;;;;8.44;78.45;101521.53;5258520;28;20373;-70
2023/03/05 11:34:00;;;;;;;3.33;1.75;;;;;;;9.34;73.84;101528.13;5262080;28;20325;-71
2023/03/05 11:36:37;;;;;;;3.40;1.20;;;;;;;9.53;68.20;101526.47;5258689;28;20028;-70
2023/03/05 11:39:15;;;;;;;3.40;1.10;;;;;;;9.49;67.36;101520.38;5261847;28;20032;-71
2023/03/05 11:42:04;;;;;;;2.58;1.27;;;;;;;10.20;68.82;101523.97;5260524;28;20071;-70
2023/03/05 11:44:46;;;;;;;3.08;1.08;;;;;;;9.42;66.21;101516.03;5261377;28;20029;-70
2023/03/05 11:47:36;;;;;;;3.45;1.70;;;;;;;8.93;69.55;101511.44;5262059;28;20449;-70
2023/03/05 11:50:21;;;;;;;2.63;1.30;;;;;;;8.16;69.83;101516.06;5262917;28;20068;-71
2023/03/05 11:53:10;;;;;;;2.53;1.10;;;;;;;8.04;72.74;101504.69;5260986;28;20082;-70
2023/03/05 11:55:51;;;;;;;2.20;1.25;;;;;;;7.88;71.94;101500.22;5262106;28;20087;-71
2023/03/05 11:58:35;;;;;;;5.05;1.75;;;;;;;7.40;75.08;101498.84;5260660;28;20036;-70
2023/03/05 12:01:19;;;;;;;4.25;1.45;;;;;;;7.17;72.15;101493.38;5262549;28;20512;-70
2023/03/05 12:03:51;;;;;;;4.65;1.25;;;;;;;6.96;73.48;101488.78;5262043;28;20037;-71
2023/03/05 12:06:44;;;;;;;5.35;1.65;;;;;;;6.76;75.42;101476.41;5260565;28;20082;-70
2023/03/05 12:09:39;;;;;;;3.33;1.50;;;;;;;6.33;75.73;101476.66;5261722;28;20411;-70